Time;durP1;ratioP1;P1;durP2;ratioP2;P2;SDS_P1;SDS_P2;PMS_P1;PMS_P2;Temp;Humidity;BMP_temperature;BMP_pressure;BME280_temperature;BME280_humidity;BME280_pressure;Samples;Min_cycle;Max_cycle;Signal;HPM_P1;HPM_P2
2022/01/30 00:01:51;;;;;;;;;19.80;14.20;;;;;4.39;74.10;99507.00;6306002;20;2813838;-50
2022/01/30 00:04:19;;;;;;;;;16.00;13.00;;;;;4.28;74.34;99501.25;6279861;20;2794187;-46
2022/01/30 00:06:49;;;;;;;;;15.80;15.00;;;;;4.26;74.25;99504.88;6307940;20;2798210;-46
2022/01/30 00:09:22;;;;;;;;;15.86;14.14;;;;;4.36;74.23;99514.25;6323179;20;1816959;-46
2022/01/30 00:12:01;;;;;;;;;25.20;16.00;;;;;4.22;74.39;99516.56;6338152;20;2816944;-47
2022/01/30 00:14:33;;;;;;;;;17.50;16.50;;;;;4.44;74.42;99520.13;6285776;20;2830544;-46
2022/01/30 00:17:14;;;;;;;;;20.33;16.00;;;;;4.45;75.00;99511.25;6279904;20;2816907;-45
2022/01/30 00:19:53;;;;;;;;;20.67;16.33;;;;;4.40;74.77;99513.22;6313156;20;2830580;-48
2022/01/30 00:24:57;;;;;;;;;24.00;13.00;;;;;4.53;74.48;99498.50;6310733;20;2812880;-48
2022/01/30 00:27:43;;;;;;;;;14.40;11.20;;;;;4.57;74.28;99494.78;6353940;20;1816921;-46
2022/01/30 00:30:14;;;;;;;;;11.00;11.00;;;;;4.47;75.31;99488.09;6313787;20;2758578;-46
2022/01/30 00:32:44;;;;;;;;;18.60;15.00;;;;;4.46;74.82;99477.53;6336530;20;2819056;-49
2022/01/30 00:35:38;;;;;;;;;19.20;12.80;;;;;4.43;75.74;99475.88;6305184;20;2801369;-48
2022/01/30 00:38:15;;;;;;;;;13.00;13.00;;;;;4.36;76.07;99463.75;6281830;20;2791964;-46
2022/01/30 00:40:45;;;;;;;;;19.33;16.67;;;;;4.40;76.24;99455.59;6283508;20;3548229;-47
2022/01/30 00:43:15;;;;;;;;;20.00;15.00;;;;;4.32;77.05;99449.72;6316032;20;2821186;-47
2022/01/30 00:45:45;;;;;;;;;16.00;12.50;;;;;4.42;76.79;99442.22;6281333;20;2795133;-51
2022/01/30 00:48:16;;;;;;;;;13.40;10.40;;;;;4.44;76.55;99437.72;6308695;20;2773276;-51
2022/01/30 00:50:45;;;;;;;;;17.00;12.67;;;;;4.44;75.43;99423.56;6281256;20;3550323;-46
2022/01/30 00:53:15;;;;;;;;;19.20;12.80;;;;;4.15;76.74;99421.16;6338209;20;2797301;-47
2022/01/30 00:55:45;;;;;;;;;14.40;12.00;;;;;4.53;75.40;99412.53;6303854;20;2793018;-47
2022/01/30 00:58:14;;;;;;;;;16.33;12.00;;;;;4.33;75.36;99408.91;6282823;20;2798223;-46
2022/01/30 01:00:42;;;;;;;;;13.00;13.00;;;;;4.47;74.56;99391.53;6312682;20;2784703;-48
2022/01/30 01:03:12;;;;;;;;;21.33;17.00;;;;;4.20;75.44;99399.72;6279367;20;3572085;-47
2022/01/30 01:05:40;;;;;;;;;16.50;12.50;;;;;4.20;75.26;99382.91;6314139;20;2805511;-51
2022/01/30 01:08:19;;;;;;;;;18.80;9.20;;;;;4.23;75.08;99374.81;6303381;20;2775336;-47
2022/01/30 01:10:53;;;;;;;;;13.50;11.50;;;;;4.01;75.11;99377.47;6280619;20;2783689;-46
2022/01/30 01:14:04;;;;;;;;;23.00;12.00;;;;;4.25;74.51;99368.50;6279999;20;2816926;-47
2022/01/30 01:20:58;;;;;;;;;19.50;15.00;;;;;4.27;74.34;99341.88;6282050;20;2807639;-49
2022/01/30 01:24:49;;;;;;;;;11.40;11.40;;;;;4.44;75.43;99334.06;6303081;20;2788784;-46
2022/01/30 01:27:18;;;;;;;;;17.50;12.00;;;;;4.26;74.77;99341.00;6278732;20;2796245;-47
2022/01/30 01:29:46;;;;;;;;;18.50;11.00;;;;;4.24;75.57;99344.63;6280361;20;2791993;-47
2022/01/30 01:32:17;;;;;;;;;14.00;12.57;;;;;4.47;75.00;99338.38;6320576;20;1814896;-45
2022/01/30 01:34:45;;;;;;;;;15.00;13.00;;;;;4.34;74.64;99346.00;6310617;20;2799679;-46
2022/01/30 01:37:13;;;;;;;;;12.00;10.00;;;;;4.51;74.29;99345.31;6280291;20;2769022;-46
2022/01/30 01:39:45;;;;;;;;;15.50;11.00;;;;;4.66;73.98;99338.44;6280571;20;2790091;-49
2022/01/30 01:42:15;;;;;;;;;20.25;14.50;;;;;4.62;73.88;99338.59;6295745;20;1846226;-48
2022/01/30 01:44:55;;;;;;;;;12.50;12.50;;;;;4.61;74.06;99331.56;6310359;20;2774273;-49
2022/01/30 01:47:31;;;;;;;;;16.14;14.00;;;;;4.68;74.02;99320.63;6317450;20;1821160;-52
2022/01/30 01:49:59;;;;;;;;;16.00;11.00;;;;;4.61;74.08;99315.59;6312729;20;2787751;-48
2022/01/30 01:52:27;;;;;;;;;16.00;13.00;;;;;4.60;74.13;99308.53;6280210;20;2802461;-47
2022/01/30 01:54:59;;;;;;;;;14.50;13.00;;;;;4.59;74.54;99312.13;6279015;20;2791997;-47
2022/01/30 01:57:28;;;;;;;;;16.00;13.00;;;;;4.68;73.31;99310.84;6281137;20;2804484;-48
2022/01/30 01:59:56;;;;;;;;;15.50;12.50;;;;;4.48;74.30;99303.75;6285787;20;2794036;-47
2022/01/30 02:02:25;;;;;;;;;23.00;17.00;;;;;4.55;73.87;99312.31;6286618;20;2825356;-47
2022/01/30 02:04:58;;;;;;;;;17.60;14.00;;;;;4.52;75.05;99313.31;6308905;20;2813933;-49
2022/01/30 02:10:19;;;;;;;;;18.00;15.33;;;;;4.51;75.21;99293.00;6316968;20;3562765;-48
2022/01/30 02:12:51;;;;;;;;;17.00;13.00;;;;;4.54;73.70;99287.53;6314879;20;2793005;-45
2022/01/30 02:26:03;;;;;;;;;15.50;14.50;;;;;4.38;74.10;99263.41;6283842;20;2796103;-50
2022/01/30 02:28:34;;;;;;;;;18.20;14.60;;;;;4.39;73.33;99261.63;6307516;20;2812744;-49
2022/01/30 02:31:10;;;;;;;;;20.33;14.33;;;;;4.39;73.46;99248.31;6284102;20;3541883;-48
2022/01/30 02:33:40;;;;;;;;;17.50;15.50;;;;;4.52;73.09;99246.84;6314438;20;2804899;-49
2022/01/30 02:36:09;;;;;;;;;19.67;15.67;;;;;4.42;73.13;99253.50;6282902;20;3556698;-49
2022/01/30 02:38:37;;;;;;;;;14.00;14.00;;;;;4.15;73.17;99240.47;6316121;20;2812788;-47
2022/01/30 02:41:06;;;;;;;;;16.33;14.33;;;;;4.01;73.51;99224.28;6285411;20;3544037;-47
2022/01/30 02:43:40;;;;;;;;;21.00;14.00;;;;;4.09;73.58;99215.97;6317972;20;2823223;-46
2022/01/30 02:46:23;;;;;;;;;20.40;14.60;;;;;3.93;74.04;99200.69;6307528;20;2820070;-49
2022/01/30 02:48:57;;;;;;;;;23.33;15.00;;;;;4.03;73.51;99193.22;6284644;20;3558647;-47
2022/01/30 02:51:33;;;;;;;;;12.50;12.50;;;;;3.83;74.41;99182.56;6314811;20;2800291;-48
2022/01/30 02:54:05;;;;;;;;;18.67;15.33;;;;;3.85;74.24;99170.09;6283078;20;2822292;-48
2022/01/30 02:56:35;;;;;;;;;20.67;16.00;;;;;3.81;74.14;99160.50;6313806;20;3564901;-46
2022/01/30 02:59:03;;;;;;;;;16.00;14.00;;;;;3.74;74.29;99152.81;6314061;20;2801284;-49
2022/01/30 03:01:32;;;;;;;;;23.33;16.00;;;;;3.74;74.95;99163.44;6282170;20;3565886;-47
2022/01/30 03:04:01;;;;;;;;;19.00;15.33;;;;;3.77;74.18;99172.22;6282131;20;3558582;-47
2022/01/30 03:06:30;;;;;;;;;28.00;22.00;;;;;4.12;75.03;99184.81;6317402;20;2843036;-47
2022/01/30 03:08:58;;;;;;;;;21.33;18.00;;;;;4.08;74.33;99182.34;6279411;20;3576304;-47
2022/01/30 03:11:27;;;;;;;;;21.00;17.00;;;;;4.23;73.42;99191.47;6279874;20;3572300;-47
2022/01/30 03:13:55;;;;;;;;;13.00;13.00;;;;;4.13;73.34;99197.19;6315622;20;2796172;-47
2022/01/30 03:16:23;;;;;;;;;21.50;14.50;;;;;4.12;73.89;99184.81;6283220;20;2810031;-49
2022/01/30 03:18:52;;;;;;;;;12.50;10.00;;;;;4.20;73.53;99178.31;6303732;20;1827331;-46
2022/01/30 03:21:21;;;;;;;;;15.50;13.00;;;;;4.09;73.57;99173.47;6315689;20;2803392;-49
2022/01/30 03:23:49;;;;;;;;;13.00;13.00;;;;;4.02;74.35;99169.34;6278873;20;2795034;-47
2022/01/30 03:26:17;;;;;;;;;19.00;19.00;;;;;4.15;73.59;99165.22;6284648;20;2833759;-48
2022/01/30 03:28:51;;;;;;;;;22.00;14.57;;;;;4.01;74.39;99147.25;6321287;20;1820110;-48
2022/01/30 03:31:20;;;;;;;;;15.00;12.50;;;;;4.21;73.72;99151.66;6314813;20;2792121;-49
2022/01/30 03:33:50;;;;;;;;;21.83;17.00;;;;;3.95;74.86;99134.25;6307708;20;2837853;-45
2022/01/30 03:36:19;;;;;;;;;18.33;15.00;;;;;4.24;73.92;99129.41;6312341;20;2804189;-46
2022/01/30 03:38:47;;;;;;;;;13.67;11.00;;;;;4.35;73.44;99127.16;6313942;20;2792084;-47
2022/01/30 03:41:15;;;;;;;;;15.00;12.50;;;;;4.33;73.74;99129.00;6317133;20;2786712;-48
2022/01/30 03:43:44;;;;;;;;;18.33;17.33;;;;;4.46;73.86;99116.91;6281995;20;2825244;-50
2022/01/30 03:46:11;;;;;;;;;15.50;14.00;;;;;4.51;73.97;99116.69;6315665;20;2794010;-47
2022/01/30 03:48:40;;;;;;;;;22.00;15.67;;;;;4.36;74.62;99115.59;6281004;20;3560653;-48
2022/01/30 03:51:08;;;;;;;;;14.50;14.50;;;;;4.40;75.11;99104.75;6312786;20;2792035;-46
2022/01/30 03:53:38;;;;;;;;;18.40;12.40;;;;;4.53;74.32;99105.06;6307784;20;2799241;-48
2022/01/30 03:56:06;;;;;;;;;15.00;12.50;;;;;4.38;75.05;99111.06;6281541;20;2795099;-47
2022/01/30 03:58:36;;;;;;;;;10.00;10.00;;;;;4.52;75.48;99118.41;6299315;20;1805497;-49
2022/01/30 04:01:05;;;;;;;;;16.00;13.00;;;;;4.33;75.26;99113.94;6313817;20;2797135;-46
2022/01/30 04:03:33;;;;;;;;;19.00;13.00;;;;;4.31;75.93;99104.28;6282433;20;2803377;-47
2022/01/30 04:06:06;;;;;;;;;23.33;13.67;;;;;4.12;76.34;99096.31;6285096;20;2833642;-51
2022/01/30 04:08:35;;;;;;;;;22.67;16.67;;;;;4.26;75.33;99090.34;6312673;20;2836706;-50
2022/01/30 04:11:04;;;;;;;;;17.33;15.00;;;;;4.32;75.54;99074.16;6313932;20;3542043;-52
2022/01/30 04:13:33;;;;;;;;;14.33;14.33;;;;;4.26;75.69;99066.44;6311155;20;2802395;-49
2022/01/30 04:16:05;;;;;;;;;13.86;12.57;;;;;4.11;77.37;99081.31;6352883;20;1810722;-48
2022/01/30 04:18:34;;;;;;;;;22.00;14.67;;;;;4.06;76.91;99075.34;6311257;20;3542991;-48
2022/01/30 04:21:04;;;;;;;;;14.00;11.00;;;;;4.18;76.31;99082.72;6338337;20;2783763;-49
2022/01/30 04:23:31;;;;;;;;;15.00;13.00;;;;;4.10;77.03;99088.38;6281527;20;2796099;-50
2022/01/30 04:26:01;;;;;;;;;15.80;13.00;;;;;4.27;76.57;99086.78;6303237;20;2804510;-46
2022/01/30 04:28:30;;;;;;;;;12.25;12.00;;;;;4.18;76.60;99080.06;6299372;20;1828199;-47
2022/01/30 04:31:01;;;;;;;;;11.83;11.00;;;;;4.21;75.81;99082.59;6353567;20;1821122;-49
2022/01/30 04:33:29;;;;;;;;;15.00;13.50;;;;;4.24;75.69;99092.22;6282350;20;2784950;-46
2022/01/30 04:36:08;;;;;;;;;19.80;16.40;;;;;4.26;75.62;99100.97;6305866;20;2821206;-46
2022/01/30 04:38:53;;;;;;;;;16.00;16.00;;;;;4.27;76.15;99086.78;6283941;20;2826317;-49
2022/01/30 04:41:47;;;;;;;;;26.67;18.00;;;;;4.46;76.38;99098.28;6281280;20;3568053;-48
2022/01/30 04:57:57;;;;;;;;;14.60;13.40;;;;;4.21;79.34;99087.03;6304087;20;2789898;-47
2022/01/30 05:08:30;;;;;;;;;19.00;16.00;;;;;4.76;77.77;99079.16;6282242;20;3562928;-47
2022/01/30 05:11:02;;;;;;;;;14.33;12.33;;;;;4.70;76.91;99088.31;6312826;20;2794136;-46
2022/01/30 05:13:32;;;;;;;;;13.00;9.00;;;;;4.65;77.41;99084.13;6313752;20;2754417;-49
2022/01/30 05:16:04;;;;;;;;;12.80;12.80;;;;;4.83;76.91;99080.59;6338332;20;2792369;-48
2022/01/30 05:18:32;;;;;;;;;17.00;9.50;;;;;4.72;77.86;99088.25;6283264;20;2789952;-49
2022/01/30 05:21:05;;;;;;;;;17.67;11.83;;;;;5.03;77.50;99077.84;6324883;20;1819081;-46
2022/01/30 05:23:33;;;;;;;;;13.00;13.00;;;;;5.02;77.48;99076.09;6308446;20;2788786;-46
2022/01/30 05:26:07;;;;;;;;;15.00;15.00;;;;;5.01;78.19;99065.56;6279919;20;2815859;-49
2022/01/30 05:28:36;;;;;;;;;11.50;11.00;;;;;4.95;79.58;99056.09;6279471;20;2788783;-47
2022/01/30 05:31:04;;;;;;;;;13.00;11.00;;;;;5.07;82.28;99051.94;6280384;20;2796141;-47
2022/01/30 05:33:32;;;;;;;;;13.50;9.00;;;;;5.52;83.64;99053.22;6286242;20;2766077;-46
2022/01/30 05:36:04;;;;;;;;;4.00;4.00;;;;;5.92;85.11;99064.47;6306533;20;1820118;-48
2022/01/30 05:38:32;;;;;;;;;1.00;1.00;;;;;6.33;84.72;99077.44;6317186;20;3438888;-46
2022/01/30 05:41:01;;;;;;;;;1.67;1.67;;;;;6.72;84.79;99073.56;6319145;20;3448177;-46
2022/01/30 05:43:32;;;;;;;;;1.00;1.00;;;;;6.74;85.83;99088.53;6335216;20;1809654;-49
2022/01/30 05:46:13;;;;;;;;;1.00;1.00;;;;;6.91;86.23;99087.56;6358522;20;2723199;-52
2022/01/30 05:48:43;;;;;;;;;2.00;0.50;;;;;6.87;88.17;99075.34;6307670;20;1803427;-52
2022/01/30 05:51:13;;;;;;;;;1.00;1.00;;;;;7.18;87.57;99101.16;6360038;20;2610707;-46
2022/01/30 05:53:41;;;;;;;;;0.67;0.67;;;;;7.33;87.76;99090.56;6289052;20;3437721;-47
2022/01/30 05:56:11;;;;;;;;;1.00;0.00;;;;;7.20;87.67;99085.06;6335106;20;1805070;-47
2022/01/30 05:58:40;;;;;;;;;0.50;0.50;;;;;7.50;87.48;99097.56;6331941;20;1805502;-46
2022/01/30 06:01:09;;;;;;;;;1.00;1.00;;;;;7.35;88.49;99097.53;6336073;20;1807602;-47
2022/01/30 06:03:37;;;;;;;;;2.00;2.00;;;;;7.46;88.43;99112.94;6317609;20;3454397;-46
2022/01/30 06:06:07;;;;;;;;;2.75;0.50;;;;;7.05;88.74;99097.47;6304632;20;1809732;-47
2022/01/30 06:09:00;;;;;;;;;1.00;1.00;;;;;7.19;89.34;99100.22;6319808;20;3436780;-50
2022/01/30 06:11:28;;;;;;;;;0.00;0.00;;;;;6.97;91.94;99103.22;6318502;20;3437766;-49
2022/01/30 06:13:55;;;;;;;;;1.00;1.00;;;;;7.08;91.91;99115.97;6284847;20;3440846;-49
2022/01/30 06:16:24;;;;;;;;;1.00;1.00;;;;;6.94;93.03;99115.91;6303448;20;1810146;-48
2022/01/30 06:18:52;;;;;;;;;0.00;0.00;;;;;6.99;93.14;99113.81;6319241;20;3432522;-49
2022/01/30 06:21:19;;;;;;;;;0.00;0.00;;;;;6.82;93.58;99088.97;6319992;20;3439842;-47
2022/01/30 06:23:49;;;;;;;;;0.50;0.50;;;;;6.90;92.42;99117.88;6301550;20;1804471;-46
2022/01/30 06:26:17;;;;;;;;;0.00;0.00;;;;;6.72;93.17;99119.75;6335030;20;1809656;-47
2022/01/30 06:28:46;;;;;;;;;0.00;0.00;;;;;6.62;92.47;99112.34;6338172;20;1804444;-48
2022/01/30 06:31:15;;;;;;;;;1.00;1.00;;;;;6.41;93.25;99149.03;6331487;20;1807570;-48
2022/01/30 06:33:44;;;;;;;;;0.00;0.00;;;;;6.21;94.52;99140.25;6319023;20;3435639;-46
2022/01/30 06:36:13;;;;;;;;;5.00;1.00;;;;;6.18;93.22;99127.09;6340112;20;1804517;-45
2022/01/30 06:38:40;;;;;;;;;2.00;0.00;;;;;5.83;94.05;99099.59;6317789;20;3442122;-48
2022/01/30 06:41:09;;;;;;;;;0.00;0.00;;;;;6.40;94.23;99093.97;6335978;20;1809663;-51
2022/01/30 06:43:37;;;;;;;;;1.00;1.00;;;;;6.45;92.96;99097.25;6333364;20;1813894;-47
2022/01/30 06:46:06;;;;;;;;;0.00;0.00;;;;;6.49;91.93;99072.13;6317950;20;3438832;-49
2022/01/30 06:48:35;;;;;;;;;1.00;1.00;;;;;6.50;91.04;99071.19;6336808;20;1815778;-47
2022/01/30 06:51:05;;;;;;;;;1.75;1.00;;;;;6.52;90.27;99069.31;6335375;20;1813938;-49
2022/01/30 06:53:34;;;;;;;;;0.00;0.00;;;;;6.30;90.25;99058.97;6334149;20;1807591;-48
2022/01/30 06:56:04;;;;;;;;;2.00;1.00;;;;;6.55;90.25;99063.78;6336122;20;1815975;-50
2022/01/30 06:58:32;;;;;;;;;5.00;5.00;;;;;6.55;87.99;99061.97;6333713;20;1821291;-48
2022/01/30 07:01:01;;;;;;;;;1.50;1.50;;;;;6.74;87.14;99064.50;6332891;20;1809726;-47
2022/01/30 07:03:32;;;;;;;;;3.00;1.75;;;;;7.24;85.43;99066.09;6333189;20;1823853;-49
2022/01/30 07:06:03;;;;;;;;;6.83;6.17;;;;;7.29;83.71;99072.97;6359318;20;1801430;-50
2022/01/30 07:08:31;;;;;;;;;5.50;5.50;;;;;7.85;82.27;99079.47;6304331;20;1825142;-50
2022/01/30 07:11:00;;;;;;;;;0.75;0.75;;;;;7.47;82.58;99066.56;6333598;20;1807595;-51
2022/01/30 07:13:28;;;;;;;;;2.00;2.00;;;;;7.28;84.20;99060.59;6331430;20;1820165;-49
2022/01/30 07:15:56;;;;;;;;;7.00;4.00;;;;;8.31;80.99;99058.78;6316046;20;2741162;-53
2022/01/30 07:18:24;;;;;;;;;7.00;3.50;;;;;8.63;78.67;99044.34;6283754;20;2747123;-52
2022/01/30 07:20:52;;;;;;;;;4.00;4.00;;;;;8.19;79.34;99034.59;6285607;20;2752358;-52
2022/01/30 07:23:20;;;;;;;;;7.25;3.50;;;;;8.22;80.47;99032.63;6302370;20;1809186;-54
2022/01/30 07:25:49;;;;;;;;;4.75;4.75;;;;;8.18;80.64;99046.28;6333817;20;1820180;-52
2022/01/30 07:28:18;;;;;;;;;2.00;1.75;;;;;8.29;80.51;99062.50;6333799;20;1809766;-54
2022/01/30 07:30:45;;;;;;;;;4.00;2.00;;;;;8.00;79.95;99058.94;6316498;20;2745493;-52
2022/01/30 07:33:13;;;;;;;;;5.00;2.50;;;;;7.92;80.66;99056.75;6283215;20;2756723;-51
2022/01/30 07:35:42;;;;;;;;;15.00;15.00;;;;;8.07;79.85;99060.31;6280183;20;3544031;-50
2022/01/30 07:38:13;;;;;;;;;1.00;1.00;;;;;7.65;79.88;99070.81;6315350;20;3440875;-50
2022/01/30 07:40:42;;;;;;;;;6.75;2.00;;;;;7.59;80.64;99079.22;6302716;20;1811220;-45
2022/01/30 07:43:11;;;;;;;;;0.25;0.00;;;;;7.88;81.19;99076.59;6333718;20;1809665;-49
2022/01/30 07:45:39;;;;;;;;;5.00;2.50;;;;;8.22;78.86;99079.91;6314697;20;2756541;-50
2022/01/30 07:48:06;;;;;;;;;6.00;5.00;;;;;8.21;77.06;99078.16;6284937;20;2750252;-50
2022/01/30 07:50:34;;;;;;;;;7.50;4.00;;;;;8.43;73.72;99089.28;6284042;20;2752435;-49
2022/01/30 07:53:03;;;;;;;;;2.50;0.75;;;;;8.27;71.64;99075.97;6300975;20;1818097;-49
2022/01/30 07:55:31;;;;;;;;;3.00;1.00;;;;;8.19;69.46;99074.72;6332466;20;1815529;-47
2022/01/30 07:58:00;;;;;;;;;0.50;0.50;;;;;8.23;68.48;99061.06;6332986;20;1810756;-47
2022/01/30 08:00:28;;;;;;;;;2.00;2.00;;;;;8.18;68.48;99051.63;6316489;20;2756543;-51
2022/01/30 08:02:56;;;;;;;;;5.00;5.00;;;;;8.38;67.40;99043.22;6302107;20;1802417;-48
2022/01/30 08:05:26;;;;;;;;;2.00;2.00;;;;;8.14;66.51;99048.28;6331879;20;1813920;-50
2022/01/30 08:07:54;;;;;;;;;2.00;1.00;;;;;8.24;64.89;99045.88;6334355;20;1805971;-45
2022/01/30 08:10:23;;;;;;;;;0.50;0.50;;;;;8.26;64.58;99027.94;6334123;20;1803554;-52
2022/01/30 08:12:51;;;;;;;;;2.75;2.50;;;;;8.32;64.71;99031.09;6331756;20;1812874;-48
2022/01/30 08:15:20;;;;;;;;;0.00;0.00;;;;;8.26;64.31;99023.44;6331279;20;1805986;-50
2022/01/30 08:17:48;;;;;;;;;4.00;2.50;;;;;8.32;62.55;99022.19;6312551;20;2752398;-46
2022/01/30 08:20:18;;;;;;;;;1.00;1.00;;;;;8.51;62.84;99016.59;6302683;20;1813992;-49
2022/01/30 08:22:53;;;;;;;;;6.50;6.00;;;;;8.51;63.53;99025.47;6310776;20;2754450;-51
2022/01/30 08:25:24;;;;;;;;;0.00;0.00;;;;;8.85;63.15;99006.38;6297637;20;1818590;-47
2022/01/30 08:27:54;;;;;;;;;5.50;2.00;;;;;8.88;62.03;99004.34;6330172;20;1817023;-48
2022/01/30 08:30:23;;;;;;;;;1.00;1.00;;;;;8.77;62.19;98998.84;6333852;20;1817036;-43
2022/01/30 08:32:51;;;;;;;;;4.50;1.75;;;;;8.66;61.90;99004.91;6333013;20;1801430;-46
2022/01/30 08:35:20;;;;;;;;;3.00;2.00;;;;;8.46;61.10;99014.19;6329962;20;1806585;-44
2022/01/30 08:37:49;;;;;;;;;1.00;1.00;;;;;8.40;61.26;99013.72;6332188;20;1809870;-44
2022/01/30 08:40:21;;;;;;;;;1.00;1.00;;;;;8.50;60.97;98994.28;6331702;20;1804474;-45
2022/01/30 08:42:51;;;;;;;;;0.50;0.00;;;;;8.64;60.89;99033.56;6332982;20;1801804;-44
2022/01/30 08:45:21;;;;;;;;;3.50;3.00;;;;;8.50;60.35;99022.88;6316843;20;2739832;-44
2022/01/30 08:47:51;;;;;;;;;8.00;3.00;;;;;8.90;60.64;99029.22;6282553;20;2747260;-42
2022/01/30 08:50:21;;;;;;;;;0.00;0.00;;;;;8.52;59.08;99039.69;6305071;20;1805501;-42
2022/01/30 08:52:50;;;;;;;;;4.50;1.25;;;;;8.60;59.95;99040.06;6335860;20;1807636;-42
2022/01/30 08:55:20;;;;;;;;;3.00;1.25;;;;;8.47;59.62;99029.28;6334635;20;1813920;-43
2022/01/30 08:57:49;;;;;;;;;3.00;1.67;;;;;8.98;59.55;99026.88;6336477;20;1808096;-42
2022/01/30 09:00:18;;;;;;;;;0.50;0.50;;;;;8.69;58.64;99026.09;6319901;20;2731580;-43
2022/01/30 09:02:45;;;;;;;;;3.00;1.50;;;;;8.73;59.03;99050.84;6320354;20;2724197;-42
2022/01/30 09:05:14;;;;;;;;;1.00;1.00;;;;;8.84;58.58;99053.69;6334390;20;1807571;-43
2022/01/30 09:07:42;;;;;;;;;3.00;2.00;;;;;8.77;57.40;99057.72;6320801;20;2748190;-43
2022/01/30 09:10:12;;;;;;;;;0.50;0.00;;;;;8.89;57.51;99054.25;6310350;20;1805572;-42
2022/01/30 09:12:40;;;;;;;;;7.00;3.00;;;;;8.88;57.28;99055.22;6324415;20;2742079;-43
2022/01/30 09:15:13;;;;;;;;;0.50;0.00;;;;;9.48;57.29;99071.81;6307727;20;1805471;-42
2022/01/30 09:17:44;;;;;;;;;1.00;0.50;;;;;8.70;57.56;99032.31;6338689;20;1802366;-43
2022/01/30 09:20:13;;;;;;;;;3.25;2.25;;;;;9.10;57.96;99027.03;6335552;20;1815378;-43
2022/01/30 09:22:43;;;;;;;;;1.00;1.00;;;;;9.32;56.50;99008.59;6323663;20;2729446;-44
2022/01/30 09:25:12;;;;;;;;;0.50;0.50;;;;;9.04;55.86;99000.66;6338629;20;1806591;-45
2022/01/30 09:27:40;;;;;;;;;1.00;1.00;;;;;8.78;54.71;98980.00;6340698;20;1805378;-45
2022/01/30 09:30:11;;;;;;;;;2.50;1.00;;;;;9.10;53.62;99008.28;6338928;20;1800316;-44
2022/01/30 09:32:40;;;;;;;;;1.00;1.00;;;;;8.93;54.70;99038.84;6340794;20;1805577;-44
2022/01/30 09:35:09;;;;;;;;;3.25;0.75;;;;;9.17;54.56;99018.50;6338642;20;1806363;-48
2022/01/30 09:37:38;;;;;;;;;4.00;1.25;;;;;8.92;53.00;99021.91;6339926;20;1804591;-45
2022/01/30 09:40:08;;;;;;;;;2.00;2.00;;;;;9.23;52.38;99041.31;6338840;20;1811332;-44
2022/01/30 09:42:37;;;;;;;;;2.00;1.00;;;;;9.34;52.00;99017.34;6339273;20;1811797;-44
2022/01/30 09:45:06;;;;;;;;;2.00;1.00;;;;;9.28;52.38;99049.91;6335779;20;1803386;-45
2022/01/30 09:47:35;;;;;;;;;2.75;1.50;;;;;9.54;51.72;99060.72;6340095;20;1807693;-44
2022/01/30 09:50:07;;;;;;;;;1.75;1.00;;;;;9.45;51.11;99072.88;6336530;20;1808112;-47
2022/01/30 09:52:36;;;;;;;;;4.00;4.00;;;;;9.82;51.15;99071.28;6323377;20;2748259;-47
2022/01/30 09:55:11;;;;;;;;;1.00;1.00;;;;;9.70;51.76;99077.47;6306734;20;1803426;-49
2022/01/30 09:57:41;;;;;;;;;4.50;3.00;;;;;9.50;51.88;99068.09;6322269;20;2746200;-47
2022/01/30 10:00:12;;;;;;;;;3.00;1.00;;;;;9.50;51.06;99084.16;6337539;20;1809143;-47
2022/01/30 10:02:42;;;;;;;;;2.50;1.00;;;;;9.67;50.45;99099.13;6323925;20;2735710;-45
2022/01/30 10:05:15;;;;;;;;;3.00;1.00;;;;;9.60;49.83;99092.44;6336067;20;1797114;-48
2022/01/30 10:07:55;;;;;;;;;4.75;3.00;;;;;9.61;49.93;99110.25;6336030;20;1813623;-46
2022/01/30 10:10:28;;;;;;;;;5.75;2.00;;;;;9.28;50.45;99106.16;6338754;20;1803520;-45
2022/01/30 10:13:14;;;;;;;;;7.40;3.20;;;;;9.48;50.81;99093.25;6345134;20;2752357;-44
2022/01/30 10:16:04;;;;;;;;;9.50;2.00;;;;;9.38;50.24;99106.44;6290280;20;2760893;-45
2022/01/30 10:18:44;;;;;;;;;6.25;1.00;;;;;9.89;49.87;99110.09;6305944;20;1809793;-45
2022/01/30 10:21:24;;;;;;;;;15.00;7.00;;;;;9.89;49.27;99115.47;6318927;20;2785701;-46
2022/01/30 10:23:52;;;;;;;;;14.00;8.00;;;;;9.94;50.62;99111.63;6319977;20;2777325;-46
2022/01/30 10:26:31;;;;;;;;;2.75;0.75;;;;;10.11;49.58;99119.38;6302114;20;1809727;-48
2022/01/30 10:29:18;;;;;;;;;3.25;1.00;;;;;10.42;49.49;99118.13;6336472;20;1805604;-47
2022/01/30 10:35:29;;;;;;;;;6.50;1.00;;;;;9.83;47.80;99131.97;6335288;20;1809654;-44
2022/01/30 10:37:59;;;;;;;;;11.00;1.00;;;;;10.07;47.93;99160.78;6316992;20;2767994;-49
2022/01/30 10:40:36;;;;;;;;;2.50;1.00;;;;;9.71;47.80;99108.66;6305888;20;1810014;-49
2022/01/30 10:43:04;;;;;;;;;0.00;0.00;;;;;9.72;48.43;99129.16;6329254;20;1811143;-45
2022/01/30 10:46:26;;;;;;;;;0.00;0.00;;;;;9.79;47.89;99130.44;6335686;20;1805541;-50
2022/01/30 10:49:03;;;;;;;;;1.00;1.00;;;;;9.83;48.27;99105.16;6335621;20;1803512;-44
2022/01/30 10:51:32;;;;;;;;;0.00;0.00;;;;;9.87;49.18;99117.41;6336080;20;1808304;-46
2022/01/30 10:54:12;;;;;;;;;0.00;0.00;;;;;9.50;50.43;99107.41;6339254;20;1802848;-44
2022/01/30 10:56:41;;;;;;;;;1.00;1.00;;;;;9.80;50.66;99123.28;6337514;20;1811869;-45
2022/01/30 10:59:21;;;;;;;;;3.00;2.00;;;;;9.83;49.95;99110.53;6336486;20;1811794;-45
2022/01/30 11:01:52;;;;;;;;;3.50;1.00;;;;;9.89;49.75;99110.09;6339467;20;1807644;-46
2022/01/30 11:04:27;;;;;;;;;1.00;1.00;;;;;9.35;50.11;99118.22;6334029;20;1807617;-45
2022/01/30 11:07:00;;;;;;;;;1.00;1.00;;;;;9.62;50.34;99114.66;6340409;20;1807190;-44
2022/01/30 11:09:36;;;;;;;;;2.75;1.00;;;;;9.21;51.14;99119.09;6337001;20;1807609;-44
2022/01/30 11:12:12;;;;;;;;;4.50;1.00;;;;;9.20;51.20;99113.84;6334976;20;1813937;-43
2022/01/30 11:17:21;;;;;;;;;1.00;0.00;;;;;9.04;51.50;99121.16;6338220;20;1805552;-44
2022/01/30 11:19:53;;;;;;;;;0.25;0.00;;;;;9.50;49.50;99134.22;6339069;20;1809712;-43
2022/01/30 11:22:28;;;;;;;;;1.00;1.00;;;;;9.47;48.92;99145.16;6337119;20;1806577;-44
2022/01/30 11:25:05;;;;;;;;;2.00;0.50;;;;;9.54;48.55;99125.03;6333071;20;1803393;-44
2022/01/30 11:27:34;;;;;;;;;1.00;1.00;;;;;9.39;48.08;99137.59;6342996;20;1807335;-45
2022/01/30 11:30:04;;;;;;;;;1.75;1.00;;;;;9.57;48.98;99130.19;6334843;20;1813897;-44
2022/01/30 11:32:33;;;;;;;;;3.75;2.00;;;;;9.34;48.79;99153.97;6338135;20;1810328;-46
2022/01/30 11:35:04;;;;;;;;;2.25;0.50;;;;;9.23;48.24;99160.03;6335666;20;1812824;-44
2022/01/30 11:38:00;;;;;;;;;4.50;1.00;;;;;9.77;49.15;99144.91;6331382;20;1806636;-46
2022/01/30 11:40:29;;;;;;;;;3.75;1.25;;;;;9.64;49.17;99144.91;6333320;20;1813956;-45
2022/01/30 11:43:08;;;;;;;;;3.25;0.00;;;;;9.08;49.59;99144.94;6333520;20;1800286;-43
2022/01/30 11:45:37;;;;;;;;;1.75;1.75;;;;;9.05;49.19;99138.94;6334493;20;1818196;-45
2022/01/30 11:48:15;;;;;;;;;4.00;3.00;;;;;8.86;50.58;99124.03;6339279;20;1812909;-49
2022/01/30 11:50:44;;;;;;;;;1.00;1.00;;;;;9.43;49.52;99134.63;6337848;20;1811953;-46
2022/01/30 11:53:27;;;;;;;;;2.00;1.00;;;;;9.26;49.36;99121.47;6337302;20;1808697;-44
2022/01/30 11:55:58;;;;;;;;;0.25;0.25;;;;;9.07;50.61;99148.59;6336340;20;1802820;-43
2022/01/30 11:58:54;;;;;;;;;11.00;6.00;;;;;8.99;50.59;99134.84;6317455;20;2773722;-44
2022/01/30 12:01:27;;;;;;;;;3.20;2.00;;;;;8.96;50.25;99135.91;6311155;20;2748171;-43
2022/01/30 12:04:07;;;;;;;;;2.75;1.00;;;;;9.30;50.86;99140.91;6335395;20;1812880;-47
2022/01/30 12:06:44;;;;;;;;;6.00;3.50;;;;;9.77;49.73;99145.81;6335921;20;1812981;-44
2022/01/30 12:09:26;;;;;;;;;9.00;2.50;;;;;9.55;50.86;99148.19;6321611;20;2738821;-44
2022/01/30 12:12:03;;;;;;;;;9.86;5.57;;;;;9.86;50.47;99142.50;6356886;20;1799325;-44
2022/01/30 12:14:46;;;;;;;;;8.50;1.00;;;;;9.59;50.57;99168.47;6335624;20;1817628;-44
2022/01/30 12:17:49;;;;;;;;;1.80;1.00;;;;;9.29;51.19;99156.09;6356651;20;2475318;-45
2022/01/30 12:20:19;;;;;;;;;7.00;1.00;;;;;9.53;50.24;99118.81;6336364;20;1808249;-44
2022/01/30 12:22:47;;;;;;;;;2.50;1.00;;;;;9.52;50.02;99143.03;6317577;20;2735718;-44
2022/01/30 12:25:30;;;;;;;;;7.50;1.00;;;;;9.57;50.87;99143.59;6333240;20;1814999;-44
2022/01/30 12:28:03;;;;;;;;;8.00;3.50;;;;;9.22;52.06;99169.03;6320190;20;2751400;-46
2022/01/30 12:30:47;;;;;;;;;4.00;2.00;;;;;9.04;53.42;99178.25;6303384;20;1809720;-43